< < Back
Terminal Aerodrome Forecast


Current Version              Previous Versions:   1  2  3  4  5  6  7  8  9  

Terminal Aerodrome Forecast

353
FTUS42 KMLB 292300 RRA
TAFMCO
TAF
KMCO 292354Z 3000/3024 27008KT P6SM SCT040 SCT100 BKN250
     FM301400 35004KT P6SM SCT025=

Latest METAR

364
SAUS70 KWBC 300900 RRD
MTRMCO
METAR KMCO 300853Z 22004KT 9SM FEW070 24/24 A2994


USA.gov is the U.S. government's official web portal to all federal, state and local government web resources and services.